Time;durP1;ratioP1;P1;durP2;ratioP2;P2;SDS_P1;SDS_P2;PMS_P1;PMS_P2;Temp;Humidity;BMP_temperature;BMP_pressure;BME280_temperature;BME280_humidity;BME280_pressure;Samples;Min_cycle;Max_cycle;Signal;HPM_P1;HPM_P2
2024/03/07 07:02:30;;;;;;;9.75;4.70;;;;;;;;;;5055823;27;20426;-37
2024/03/07 07:04:56;;;;;;;7.97;4.80;;;;;;;;;;5033816;28;20400;-38
2024/03/07 07:07:22;;;;;;;8.75;3.95;;;;;;;;;;5030507;28;20299;-40
2024/03/07 07:09:51;;;;;;;5.90;4.18;;;;;;;;;;5031522;28;20506;-40
2024/03/07 07:12:18;;;;;;;5.93;4.07;;;;;;;;;;5031940;28;20275;-40
2024/03/07 07:14:43;;;;;;;7.40;4.40;;;;;;;;;;5028008;28;20254;-38
2024/03/07 07:17:13;;;;;;;6.03;3.95;;;;;;;;;;5021654;28;20192;-38
2024/03/07 07:19:39;;;;;;;8.65;4.50;;;;;;;;;;5021832;28;20195;-43
2024/03/07 07:22:06;;;;;;;9.77;4.43;;;;;;;;;;5029608;28;20250;-48
2024/03/07 07:24:34;;;;;;;7.10;4.30;;;;;;;;;;5027848;28;20175;-48
2024/03/07 07:27:00;;;;;;;4.68;3.88;;;;;;;;;;5022097;28;20191;-51
2024/03/07 07:29:26;;;;;;;8.10;3.90;;;;;;;;;;5028319;28;20195;-51
2024/03/07 07:31:52;;;;;;;8.35;4.43;;;;;;;;;;5029472;28;20271;-51
2024/03/07 07:34:19;;;;;;;6.78;4.00;;;;;;;;;;5029427;28;20258;-51
2024/03/07 07:36:45;;;;;;;9.18;4.43;;;;;;;;;;5023202;28;20187;-52
2024/03/07 07:39:16;;;;;;;6.57;4.28;;;;;;;;;;5028005;28;20279;-53
2024/03/07 07:41:42;;;;;;;6.78;4.53;;;;;;;;;;5021367;28;20204;-53
2024/03/07 07:44:09;;;;;;;8.10;4.43;;;;;;;;;;5018601;28;20251;-54
2024/03/07 07:46:35;;;;;;;6.25;3.97;;;;;;;;;;5028719;28;20173;-54
2024/03/07 07:49:04;;;;;;;8.45;4.43;;;;;;;;;;5022854;28;20674;-54
2024/03/07 07:51:30;;;;;;;6.13;3.92;;;;;;;;;;5022105;28;20172;-55
2024/03/07 07:53:56;;;;;;;8.55;4.35;;;;;;;;;;5029154;28;20186;-56
2024/03/07 07:56:22;;;;;;;6.28;4.20;;;;;;;;;;5020895;28;20195;-56
2024/03/07 07:58:48;;;;;;;8.00;5.18;;;;;;;;;;5015054;28;20173;-56
2024/03/07 08:01:16;;;;;;;6.15;3.88;;;;;;;;;;5026352;28;20215;-56
2024/03/07 08:03:43;;;;;;;7.97;4.07;;;;;;;;;;5022847;28;20268;-56
2024/03/07 08:06:09;;;;;;;6.50;4.20;;;;;;;;;;5040133;28;20184;-56
2024/03/07 08:08:35;;;;;;;6.70;4.35;;;;;;;;;;5026959;28;20176;-59
2024/03/07 08:11:01;;;;;;;8.13;4.70;;;;;;;;;;5024312;28;20476;-59
2024/03/07 08:13:27;;;;;;;7.03;4.30;;;;;;;;;;5014625;28;20181;-59
2024/03/07 08:15:56;;;;;;;7.18;4.28;;;;;;;;;;5022421;28;20185;-60
2024/03/07 08:18:22;;;;;;;5.32;3.85;;;;;;;;;;5003140;28;20188;-60
2024/03/07 08:20:48;;;;;;;5.55;3.90;;;;;;;;;;5003996;28;20850;-60
2024/03/07 08:23:14;;;;;;;6.82;4.40;;;;;;;;;;5019621;28;20219;-59
2024/03/07 08:25:40;;;;;;;6.97;4.65;;;;;;;;;;5004601;28;20345;-58
2024/03/07 08:28:06;;;;;;;6.10;4.30;;;;;;;;;;5001574;28;20859;-58
2024/03/07 08:30:32;;;;;;;6.03;4.53;;;;;;;;;;5015318;28;20239;-58
2024/03/07 08:33:01;;;;;;;8.15;4.00;;;;;;;;;;5010350;28;20212;-57
2024/03/07 08:35:28;;;;;;;5.50;3.78;;;;;;;;;;5010956;28;20311;-57
2024/03/07 08:37:55;;;;;;;7.68;4.70;;;;;;;;;;5008520;28;20186;-56
2024/03/07 08:40:22;;;;;;;5.18;4.15;;;;;;;;;;5011220;28;20272;-55
2024/03/07 08:42:50;;;;;;;5.97;4.55;;;;;;;;;;5007720;28;20185;-55
2024/03/07 08:45:19;;;;;;;5.90;4.15;;;;;;;;;;4998215;28;20192;-54
2024/03/07 08:47:46;;;;;;;6.63;4.75;;;;;;;;;;5007095;28;20186;-53
2024/03/07 08:50:13;;;;;;;5.75;4.13;;;;;;;;;;5009589;28;20207;-53
2024/03/07 08:52:39;;;;;;;7.00;4.32;;;;;;;;;;5004995;28;20203;-52
2024/03/07 08:55:06;;;;;;;8.10;4.22;;;;;;;;;;5015037;28;20227;-52
2024/03/07 08:57:32;;;;;;;6.40;4.30;;;;;;;;;;5005445;28;20181;-51
2024/03/07 08:59:58;;;;;;;6.10;4.28;;;;;;;;;;4998806;28;20226;-51
2024/03/07 09:02:24;;;;;;;5.00;3.88;;;;;;;;;;5003293;28;20580;-50
2024/03/07 09:04:50;;;;;;;5.05;4.05;;;;;;;;;;5002078;28;20508;-51
2024/03/07 09:07:17;;;;;;;6.05;3.90;;;;;;;;;;5002448;28;20561;-51
2024/03/07 09:09:43;;;;;;;6.20;4.63;;;;;;;;;;5007347;28;20184;-50
2024/03/07 09:12:09;;;;;;;7.75;4.82;;;;;;;;;;5014586;28;20176;-50
2024/03/07 09:14:36;;;;;;;6.43;4.72;;;;;;;;;;4998505;28;20263;-50
2024/03/07 09:17:02;;;;;;;5.78;4.00;;;;;;;;;;5009122;28;20193;-49
2024/03/07 09:19:28;;;;;;;6.35;4.28;;;;;;;;;;4998707;28;20621;-49
2024/03/07 09:21:54;;;;;;;5.63;4.20;;;;;;;;;;4995722;28;20212;-49
2024/03/07 09:24:23;;;;;;;5.78;4.47;;;;;;;;;;5002786;28;20181;-49
2024/03/07 09:26:50;;;;;;;7.50;4.70;;;;;;;;;;5004762;28;20323;-49
2024/03/07 09:29:18;;;;;;;5.97;4.07;;;;;;;;;;4994862;28;20267;-48
2024/03/07 09:31:43;;;;;;;5.90;3.85;;;;;;;;;;5003206;28;20758;-47
2024/03/07 09:34:09;;;;;;;5.25;4.05;;;;;;;;;;4997781;28;20200;-47
2024/03/07 09:36:35;;;;;;;6.43;4.40;;;;;;;;;;5010996;28;20185;-48
2024/03/07 09:39:01;;;;;;;4.70;3.97;;;;;;;;;;5001619;28;20684;-48
2024/03/07 09:41:27;;;;;;;5.93;4.38;;;;;;;;;;4998849;28;20248;-48
2024/03/07 09:43:55;;;;;;;4.57;3.72;;;;;;;;;;5006776;28;20184;-48
2024/03/07 09:46:24;;;;;;;5.97;3.72;;;;;;;;;;5012679;28;20180;-47
2024/03/07 09:48:53;;;;;;;5.00;3.90;;;;;;;;;;5012355;28;20187;-48
2024/03/07 09:51:20;;;;;;;5.05;3.97;;;;;;;;;;5003129;28;20181;-48
2024/03/07 09:53:47;;;;;;;5.80;4.25;;;;;;;;;;5002553;28;20196;-48
2024/03/07 09:56:15;;;;;;;6.47;4.00;;;;;;;;;;5001797;28;20719;-48
2024/03/07 09:58:42;;;;;;;4.85;4.10;;;;;;;;;;5009820;28;20561;-48
2024/03/07 10:01:10;;;;;;;5.43;4.00;;;;;;;;;;5006113;28;20211;-48
2024/03/07 10:03:36;;;;;;;4.75;3.75;;;;;;;;;;5003126;28;20181;-48
2024/03/07 10:06:02;;;;;;;6.45;4.47;;;;;;;;;;5000873;28;20195;-47
2024/03/07 10:08:30;;;;;;;5.68;3.90;;;;;;;;;;5018926;28;20191;-47
2024/03/07 10:10:56;;;;;;;5.20;3.85;;;;;;;;;;5001294;28;20440;-47
2024/03/07 10:13:22;;;;;;;4.75;4.05;;;;;;;;;;5005671;28;20271;-47
2024/03/07 10:15:48;;;;;;;5.00;4.22;;;;;;;;;;5004238;28;20267;-47
2024/03/07 10:18:14;;;;;;;6.70;4.25;;;;;;;;;;5017108;28;20195;-48
2024/03/07 10:20:42;;;;;;;5.65;4.28;;;;;;;;;;5006202;28;20550;-48
2024/03/07 10:23:09;;;;;;;7.00;4.03;;;;;;;;;;5008280;28;20587;-47
2024/03/07 10:25:35;;;;;;;6.75;4.32;;;;;;;;;;5001924;28;20516;-47
2024/03/07 10:28:03;;;;;;;4.53;3.65;;;;;;;;;;5013995;28;20196;-47
2024/03/07 10:30:29;;;;;;;4.90;4.10;;;;;;;;;;5011302;28;20554;-47
2024/03/07 10:32:56;;;;;;;7.93;4.40;;;;;;;;;;5010350;28;20515;-48
2024/03/07 10:35:25;;;;;;;5.20;4.00;;;;;;;;;;5004966;28;20181;-49
2024/03/07 10:37:55;;;;;;;5.78;4.30;;;;;;;;;;5004780;28;20184;-51
2024/03/07 10:40:22;;;;;;;6.50;4.25;;;;;;;;;;5001688;28;20192;-48
2024/03/07 10:42:51;;;;;;;5.22;3.63;;;;;;;;;;5006345;28;20185;-45
2024/03/07 10:45:18;;;;;;;4.68;3.80;;;;;;;;;;5001650;28;20165;-45
2024/03/07 10:47:45;;;;;;;4.75;3.92;;;;;;;;;;5010600;28;20269;-45
2024/03/07 10:50:20;;;;;;;4.75;3.53;;;;;;;;;;5002693;28;20227;-50
2024/03/07 10:53:00;;;;;;;5.07;3.78;;;;;;;;;;5006703;28;20303;-47
2024/03/07 10:55:36;;;;;;;8.30;4.25;;;;;;;;;;4997637;28;20209;-51
2024/03/07 10:58:07;;;;;;;5.68;4.35;;;;;;;;;;5001998;28;20173;-48
2024/03/07 11:00:36;;;;;;;8.68;4.00;;;;;;;;;;4998311;28;20387;-47
2024/03/07 11:03:09;;;;;;;8.38;4.40;;;;;;;;;;5000428;28;20190;-47
2024/03/07 11:05:35;;;;;;;4.97;3.92;;;;;;;;;;4999943;28;20495;-46
2024/03/07 11:08:11;;;;;;;4.80;3.95;;;;;;;;;;5005140;28;20225;-55
2024/03/07 11:10:37;;;;;;;8.32;4.88;;;;;;;;;;5004879;28;20779;-49
2024/03/07 11:13:04;;;;;;;7.05;4.15;;;;;;;;;;4997481;28;20195;-49
2024/03/07 11:15:31;;;;;;;8.88;4.18;;;;;;;;;;5006607;28;20184;-50
2024/03/07 11:17:59;;;;;;;7.15;4.65;;;;;;;;;;5004642;28;20271;-49
2024/03/07 11:20:25;;;;;;;5.15;4.10;;;;;;;;;;5007197;28;20466;-47
2024/03/07 11:22:53;;;;;;;13.32;4.25;;;;;;;;;;5001727;28;20775;-47
2024/03/07 11:25:20;;;;;;;8.93;5.03;;;;;;;;;;5008961;28;20218;-47
2024/03/07 11:27:56;;;;;;;15.27;4.18;;;;;;;;;;5013648;28;20188;-47
2024/03/07 11:30:22;;;;;;;9.38;4.35;;;;;;;;;;5010153;28;20206;-47
2024/03/07 11:32:54;;;;;;;9.18;4.40;;;;;;;;;;5020256;28;20181;-47
2024/03/07 11:35:27;;;;;;;8.60;4.68;;;;;;;;;;5012129;28;20190;-47
2024/03/07 11:37:57;;;;;;;7.78;4.30;;;;;;;;;;5010498;28;20181;-47
2024/03/07 11:40:24;;;;;;;7.63;4.32;;;;;;;;;;5012000;28;20198;-47
2024/03/07 11:42:50;;;;;;;6.10;3.90;;;;;;;;;;5001142;28;20581;-47
2024/03/07 11:45:26;;;;;;;8.25;3.72;;;;;;;;;;4999465;28;20228;-47
2024/03/07 11:47:57;;;;;;;6.15;3.78;;;;;;;;;;5001354;28;20571;-47
2024/03/07 11:50:25;;;;;;;4.60;3.75;;;;;;;;;;4997870;28;20185;-47
2024/03/07 11:52:52;;;;;;;8.05;4.53;;;;;;;;;;5009172;28;20247;-47
2024/03/07 11:55:19;;;;;;;9.00;4.03;;;;;;;;;;5008954;28;20559;-47
2024/03/07 11:57:45;;;;;;;6.38;4.35;;;;;;;;;;5009304;28;20487;-47
2024/03/07 12:00:13;;;;;;;6.07;3.67;;;;;;;;;;5012278;28;20180;-48
2024/03/07 12:02:40;;;;;;;6.40;4.05;;;;;;;;;;5013685;28;20189;-47
2024/03/07 12:05:06;;;;;;;7.68;4.03;;;;;;;;;;5022777;28;20189;-47
2024/03/07 12:07:33;;;;;;;7.40;3.70;;;;;;;;;;5011269;28;20200;-48
2024/03/07 12:09:59;;;;;;;5.53;3.88;;;;;;;;;;5005167;28;20232;-48
2024/03/07 12:12:27;;;;;;;6.15;4.00;;;;;;;;;;5000811;28;20343;-47
2024/03/07 12:14:54;;;;;;;6.10;3.92;;;;;;;;;;5007724;28;20176;-47
2024/03/07 12:17:21;;;;;;;6.63;4.18;;;;;;;;;;5008511;28;20184;-47
2024/03/07 12:19:47;;;;;;;5.50;3.75;;;;;;;;;;5003278;28;20263;-48
2024/03/07 12:22:14;;;;;;;6.97;4.10;;;;;;;;;;5010085;28;20209;-48
2024/03/07 12:24:40;;;;;;;6.68;4.05;;;;;;;;;;5006009;28;21615;-48
2024/03/07 12:27:08;;;;;;;7.20;4.00;;;;;;;;;;4998420;28;20564;-48
2024/03/07 12:29:37;;;;;;;7.78;3.65;;;;;;;;;;5004675;28;20177;-47
2024/03/07 12:32:03;;;;;;;9.07;3.95;;;;;;;;;;5006814;28;20185;-47
2024/03/07 12:34:31;;;;;;;5.20;3.65;;;;;;;;;;5008811;28;20185;-47
2024/03/07 12:36:58;;;;;;;5.60;3.60;;;;;;;;;;5010660;28;20459;-48
2024/03/07 12:39:25;;;;;;;7.10;3.47;;;;;;;;;;5007141;28;20192;-48
2024/03/07 12:41:55;;;;;;;5.18;3.88;;;;;;;;;;5007910;28;20219;-47
2024/03/07 12:44:21;;;;;;;10.15;3.97;;;;;;;;;;5014340;28;20183;-48
2024/03/07 12:46:48;;;;;;;5.18;3.92;;;;;;;;;;5007252;28;20213;-47
2024/03/07 12:49:15;;;;;;;10.93;4.43;;;;;;;;;;5001516;28;20223;-47
2024/03/07 12:51:41;;;;;;;5.50;3.60;;;;;;;;;;5010366;28;20185;-47
2024/03/07 12:54:09;;;;;;;4.50;3.35;;;;;;;;;;5005979;28;20260;-47
2024/03/07 12:56:37;;;;;;;4.82;3.55;;;;;;;;;;4996836;28;20196;-47
2024/03/07 12:59:03;;;;;;;5.95;3.90;;;;;;;;;;5004843;28;20870;-47
2024/03/07 13:01:28;;;;;;;5.78;3.80;;;;;;;;;;4999519;28;20217;-47
2024/03/07 13:03:54;;;;;;;4.85;3.38;;;;;;;;;;5005343;28;20184;-48
2024/03/07 13:06:25;;;;;;;5.20;4.03;;;;;;;;;;5003099;28;20442;-48
2024/03/07 13:08:51;;;;;;;5.50;3.55;;;;;;;;;;5007538;28;20180;-48
2024/03/07 13:11:17;;;;;;;5.78;3.90;;;;;;;;;;5011378;28;20606;-48
2024/03/07 13:13:43;;;;;;;7.15;3.83;;;;;;;;;;5001953;28;20181;-47
2024/03/07 13:16:09;;;;;;;9.65;4.15;;;;;;;;;;5009943;28;20673;-47
2024/03/07 13:18:37;;;;;;;6.75;3.33;;;;;;;;;;4998058;28;20208;-48
2024/03/07 13:21:03;;;;;;;4.00;3.28;;;;;;;;;;5007490;28;20303;-48
2024/03/07 13:23:29;;;;;;;5.32;3.67;;;;;;;;;;4993924;28;20234;-48
2024/03/07 13:25:55;;;;;;;4.38;3.42;;;;;;;;;;5005088;28;20189;-48
2024/03/07 13:28:24;;;;;;;6.18;3.83;;;;;;;;;;5001475;28;20196;-47
2024/03/07 13:30:50;;;;;;;5.50;3.70;;;;;;;;;;5009805;28;20226;-48
2024/03/07 13:33:16;;;;;;;5.30;3.60;;;;;;;;;;5007178;28;20181;-48
2024/03/07 13:35:42;;;;;;;3.85;3.42;;;;;;;;;;5008246;28;20189;-48
2024/03/07 13:38:09;;;;;;;4.10;3.60;;;;;;;;;;5009273;28;20204;-47
2024/03/07 13:40:38;;;;;;;4.53;3.85;;;;;;;;;;5004723;28;20209;-47
2024/03/07 13:43:05;;;;;;;5.38;3.58;;;;;;;;;;5010277;28;20184;-47
2024/03/07 13:45:31;;;;;;;5.20;3.85;;;;;;;;;;5006394;28;20187;-47
2024/03/07 13:47:58;;;;;;;5.53;4.00;;;;;;;;;;5002369;28;20212;-47
2024/03/07 13:50:25;;;;;;;5.93;3.60;;;;;;;;;;5009618;28;20177;-48
2024/03/07 13:53:10;;;;;;;4.60;3.72;;;;;;;;;;5007943;28;20182;-48
2024/03/07 13:55:55;;;;;;;5.93;3.38;;;;;;;;;;5003117;28;20302;-48
2024/03/07 13:58:21;;;;;;;4.40;3.58;;;;;;;;;;5000065;28;20223;-48
2024/03/07 14:00:55;;;;;;;6.97;3.83;;;;;;;;;;5008153;28;20226;-48
2024/03/07 14:03:29;;;;;;;5.03;3.55;;;;;;;;;;5006630;28;20188;-47
2024/03/07 14:05:58;;;;;;;5.55;3.75;;;;;;;;;;5013240;28;20176;-47
2024/03/07 14:08:50;;;;;;;4.97;3.42;;;;;;;;;;5007787;28;20187;-48
2024/03/07 14:11:36;;;;;;;3.90;3.38;;;;;;;;;;5005112;28;20217;-48
2024/03/07 14:14:06;;;;;;;5.82;3.67;;;;;;;;;;5007585;28;20168;-48
2024/03/07 14:16:51;;;;;;;5.40;3.50;;;;;;;;;;5001950;28;20189;-48
2024/03/07 14:19:36;;;;;;;5.40;3.80;;;;;;;;;;4999502;28;20195;-47
2024/03/07 14:22:27;;;;;;;5.43;3.85;;;;;;;;;;5005370;28;20207;-47
2024/03/07 14:25:16;;;;;;;5.10;4.45;;;;;;;;;;5004171;28;20200;-47
2024/03/07 14:27:49;;;;;;;8.27;5.65;;;;;;;;;;5009731;28;20271;-48
2024/03/07 14:30:43;;;;;;;8.43;7.00;;;;;;;;;;5001902;28;20172;-48
2024/03/07 14:33:09;;;;;;;10.35;7.07;;;;;;;;;;5004113;28;20176;-48
2024/03/07 14:35:53;;;;;;;8.93;6.93;;;;;;;;;;5005685;28;20188;-48
2024/03/07 14:38:23;;;;;;;11.57;7.63;;;;;;;;;;5001003;28;20189;-48
2024/03/07 14:40:50;;;;;;;7.47;6.65;;;;;;;;;;5005947;28;20204;-48
2024/03/07 14:43:17;;;;;;;9.48;6.93;;;;;;;;;;5002717;28;20251;-48
2024/03/07 14:45:43;;;;;;;9.20;7.18;;;;;;;;;;4997997;28;20489;-48
2024/03/07 14:48:12;;;;;;;7.70;6.13;;;;;;;;;;5011982;28;20582;-48
2024/03/07 14:50:40;;;;;;;7.57;6.63;;;;;;;;;;5005309;28;20195;-48
2024/03/07 14:53:06;;;;;;;7.93;6.82;;;;;;;;;;4997741;28;20169;-48
2024/03/07 14:55:32;;;;;;;8.20;6.65;;;;;;;;;;5010983;28;20193;-48
2024/03/07 14:58:01;;;;;;;8.32;6.45;;;;;;;;;;5003058;28;20205;-48
2024/03/07 15:00:28;;;;;;;8.10;6.72;;;;;;;;;;5003640;28;20199;-48
2024/03/07 15:02:58;;;;;;;7.93;6.18;;;;;;;;;;4999642;28;20556;-48
2024/03/07 15:05:24;;;;;;;7.85;7.05;;;;;;;;;;5007046;28;20191;-48
2024/03/07 15:07:53;;;;;;;8.07;6.75;;;;;;;;;;5010767;28;20276;-48
2024/03/07 15:10:28;;;;;;;7.80;6.25;;;;;;;;;;5001594;28;20227;-48
2024/03/07 15:12:54;;;;;;;7.78;6.28;;;;;;;;;;5004932;28;20274;-48
2024/03/07 15:15:24;;;;;;;12.70;7.68;;;;;;;;;;5014615;28;20192;-48
2024/03/07 15:17:50;;;;;;;16.15;8.88;;;;;;;;;;5008545;28;20199;-48
2024/03/07 15:20:22;;;;;;;12.30;7.65;;;;;;;;;;4994903;28;20181;-48
2024/03/07 15:22:54;;;;;;;19.58;8.20;;;;;;;;;;5012655;28;20188;-48
2024/03/07 15:25:22;;;;;;;12.00;7.47;;;;;;;;;;5005866;28;20219;-48
2024/03/07 15:27:49;;;;;;;9.93;6.80;;;;;;;;;;5016687;28;20463;-48
2024/03/07 15:30:16;;;;;;;11.63;7.10;;;;;;;;;;4998789;28;20243;-48
2024/03/07 15:32:42;;;;;;;12.98;7.75;;;;;;;;;;5007634;28;20193;-48
2024/03/07 15:35:17;;;;;;;13.45;8.30;;;;;;;;;;5007769;28;20234;-48
2024/03/07 15:37:44;;;;;;;23.92;8.45;;;;;;;;;;5013418;28;20180;-48
2024/03/07 15:40:14;;;;;;;20.17;10.13;;;;;;;;;;5006326;28;20181;-48
2024/03/07 15:42:40;;;;;;;26.58;10.95;;;;;;;;;;5000243;28;20597;-48
2024/03/07 15:45:16;;;;;;;29.35;11.00;;;;;;;;;;5008580;28;20251;-48
2024/03/07 15:47:45;;;;;;;32.30;13.13;;;;;;;;;;5009965;28;20208;-48
2024/03/07 15:50:11;;;;;;;37.63;12.38;;;;;;;;;;4996912;28;20268;-48
2024/03/07 15:52:39;;;;;;;38.88;13.25;;;;;;;;;;5008997;28;20636;-48
2024/03/07 15:55:05;;;;;;;33.25;13.05;;;;;;;;;;5013647;28;20177;-48
2024/03/07 15:57:31;;;;;;;39.42;14.60;;;;;;;;;;4997017;28;20185;-48
2024/03/07 15:59:57;;;;;;;37.53;13.43;;;;;;;;;;5005232;28;20188;-48
2024/03/07 16:02:22;;;;;;;49.67;14.20;;;;;;;;;;5003085;28;20208;-48
2024/03/07 16:04:48;;;;;;;38.53;13.70;;;;;;;;;;5009951;28;20553;-48
2024/03/07 16:07:14;;;;;;;42.03;14.60;;;;;;;;;;5022275;28;20184;-48
2024/03/07 16:09:40;;;;;;;38.67;14.38;;;;;;;;;;5005132;28;20255;-48
2024/03/07 16:12:07;;;;;;;35.92;14.07;;;;;;;;;;5000941;28;20938;-48
2024/03/07 16:14:33;;;;;;;43.65;14.80;;;;;;;;;;5004452;28;20192;-48
2024/03/07 16:16:59;;;;;;;43.00;15.13;;;;;;;;;;5005020;28;20202;-48
2024/03/07 16:19:25;;;;;;;51.25;14.93;;;;;;;;;;5014258;28;20195;-48
2024/03/07 16:21:51;;;;;;;47.22;15.80;;;;;;;;;;5007032;28;20220;-48
2024/03/07 16:24:17;;;;;;;36.00;14.48;;;;;;;;;;5014100;28;20204;-48
2024/03/07 16:26:44;;;;;;;42.10;13.85;;;;;;;;;;5003275;28;20193;-48
2024/03/07 16:29:11;;;;;;;35.25;15.15;;;;;;;;;;5007184;28;20173;-48
2024/03/07 16:31:38;;;;;;;43.42;15.90;;;;;;;;;;5000981;28;20172;-48
2024/03/07 16:34:04;;;;;;;41.17;13.40;;;;;;;;;;5001611;28;20185;-48
2024/03/07 16:36:30;;;;;;;36.20;14.32;;;;;;;;;;5002220;28;20452;-48
2024/03/07 16:38:56;;;;;;;34.72;14.45;;;;;;;;;;5012131;28;20231;-48
2024/03/07 16:41:22;;;;;;;29.02;12.98;;;;;;;;;;5009209;28;20216;-48
2024/03/07 16:43:50;;;;;;;38.30;14.75;;;;;;;;;;5010398;28;20177;-48
2024/03/07 16:46:17;;;;;;;35.85;13.52;;;;;;;;;;5007509;28;20287;-48
2024/03/07 16:48:44;;;;;;;37.75;13.98;;;;;;;;;;5004065;28;20284;-48
2024/03/07 16:51:10;;;;;;;34.20;12.63;;;;;;;;;;5004079;28;20181;-48
2024/03/07 16:53:37;;;;;;;34.60;13.38;;;;;;;;;;5004350;28;20207;-48
2024/03/07 16:56:03;;;;;;;36.53;13.52;;;;;;;;;;5005269;28;20176;-48
2024/03/07 16:58:29;;;;;;;34.97;13.70;;;;;;;;;;5005271;28;20292;-48
2024/03/07 17:00:56;;;;;;;32.10;12.95;;;;;;;;;;5002937;28;20625;-48
2024/03/07 17:03:22;;;;;;;27.48;13.00;;;;;;;;;;5011806;28;20203;-48
2024/03/07 17:05:48;;;;;;;28.83;12.60;;;;;;;;;;5009689;28;20563;-48
2024/03/07 17:08:16;;;;;;;35.00;13.43;;;;;;;;;;5004104;28;20192;-48
2024/03/07 17:10:42;;;;;;;22.45;12.00;;;;;;;;;;5005549;28;20184;-48
2024/03/07 17:13:09;;;;;;;35.47;12.48;;;;;;;;;;5012455;28;20173;-48
2024/03/07 17:15:37;;;;;;;26.73;12.73;;;;;;;;;;5010976;28;20259;-48
2024/03/07 17:18:04;;;;;;;28.27;11.23;;;;;;;;;;5010791;28;20215;-48
2024/03/07 17:20:30;;;;;;;29.05;12.40;;;;;;;;;;4999150;28;20181;-48
2024/03/07 17:22:56;;;;;;;26.67;11.55;;;;;;;;;;5004508;28;20208;-48
2024/03/07 17:25:24;;;;;;;30.42;11.73;;;;;;;;;;5007071;28;20507;-48
2024/03/07 17:27:52;;;;;;;29.13;11.77;;;;;;;;;;5002023;28;20172;-48
2024/03/07 17:30:22;;;;;;;22.05;11.00;;;;;;;;;;4996614;28;20600;-48
2024/03/07 17:32:49;;;;;;;23.63;11.13;;;;;;;;;;5003324;28;20189;-48
2024/03/07 17:35:19;;;;;;;19.80;10.73;;;;;;;;;;5006672;28;20267;-48
2024/03/07 17:37:45;;;;;;;23.02;10.68;;;;;;;;;;5003984;28;20193;-48
2024/03/07 17:40:17;;;;;;;23.45;10.95;;;;;;;;;;5012205;28;20451;-48
2024/03/07 17:42:47;;;;;;;23.90;10.60;;;;;;;;;;5010229;28;20299;-48
2024/03/07 17:45:20;;;;;;;19.95;10.32;;;;;;;;;;4996908;28;20181;-48
2024/03/07 17:47:52;;;;;;;23.67;10.75;;;;;;;;;;5000264;28;20615;-48
2024/03/07 17:50:19;;;;;;;24.25;10.50;;;;;;;;;;5011204;28;20268;-48
2024/03/07 17:52:49;;;;;;;19.92;10.25;;;;;;;;;;5002699;28;20477;-48
2024/03/07 17:55:16;;;;;;;21.50;10.10;;;;;;;;;;5005343;28;20227;-48
2024/03/07 17:57:46;;;;;;;17.55;10.15;;;;;;;;;;5003274;28;20196;-48
2024/03/07 18:00:28;;;;;;;20.50;9.70;;;;;;;;;;4995643;28;20185;-48
2024/03/07 18:02:57;;;;;;;21.35;10.02;;;;;;;;;;5005314;28;20459;-48
2024/03/07 18:05:29;;;;;;;20.05;9.40;;;;;;;;;;5007531;28;20197;-48
2024/03/07 18:07:57;;;;;;;19.67;9.52;;;;;;;;;;5009446;28;20246;-48
2024/03/07 18:10:22;;;;;;;17.58;9.60;;;;;;;;;;5009600;28;20572;-48
2024/03/07 18:12:49;;;;;;;18.98;8.73;;;;;;;;;;5008280;28;20185;-48
2024/03/07 18:15:19;;;;;;;17.67;8.75;;;;;;;;;;5006232;28;20181;-48
2024/03/07 18:17:48;;;;;;;14.20;8.40;;;;;;;;;;5001763;28;20189;-48
2024/03/07 18:20:14;;;;;;;18.52;9.38;;;;;;;;;;5008259;28;20212;-48
2024/03/07 18:22:42;;;;;;;18.85;9.18;;;;;;;;;;5017706;28;20665;-48
2024/03/07 18:25:08;;;;;;;17.63;9.05;;;;;;;;;;5008758;28;20466;-48
2024/03/07 18:27:34;;;;;;;16.05;8.90;;;;;;;;;;5002105;28;20193;-48
2024/03/07 18:30:10;;;;;;;15.88;8.60;;;;;;;;;;4997778;28;20758;-47
2024/03/07 18:32:36;;;;;;;15.57;8.13;;;;;;;;;;5001848;28;20191;-47
2024/03/07 18:35:02;;;;;;;18.00;8.45;;;;;;;;;;5007470;28;20280;-47
2024/03/07 18:37:28;;;;;;;16.88;8.23;;;;;;;;;;5004405;28;20534;-47
2024/03/07 18:39:55;;;;;;;13.32;7.70;;;;;;;;;;4997119;28;20448;-47
2024/03/07 18:42:21;;;;;;;15.68;8.30;;;;;;;;;;5011361;28;20603;-47
2024/03/07 18:44:51;;;;;;;17.65;8.60;;;;;;;;;;5013845;28;20180;-47
2024/03/07 18:47:19;;;;;;;14.60;7.55;;;;;;;;;;5003101;28;20200;-47
2024/03/07 18:49:48;;;;;;;15.25;8.13;;;;;;;;;;5013258;28;20447;-47
2024/03/07 18:52:14;;;;;;;11.93;7.38;;;;;;;;;;4998814;28;20189;-48
2024/03/07 18:54:41;;;;;;;14.38;7.45;;;;;;;;;;5004552;28;20188;-48
2024/03/07 18:57:10;;;;;;;13.70;8.00;;;;;;;;;;4997644;28;20192;-48
2024/03/07 18:59:36;;;;;;;13.25;7.13;;;;;;;;;;5002539;28;20630;-48
2024/03/07 19:02:12;;;;;;;13.13;7.70;;;;;;;;;;5005298;28;20216;-48
2024/03/07 19:04:41;;;;;;;11.40;7.63;;;;;;;;;;5012179;28;20224;-48
2024/03/07 19:07:10;;;;;;;13.57;7.95;;;;;;;;;;5008031;28;20393;-48
2024/03/07 19:09:36;;;;;;;11.82;6.95;;;;;;;;;;5010989;28;20203;-48
2024/03/07 19:12:03;;;;;;;16.05;7.68;;;;;;;;;;4997722;28;20181;-48
2024/03/07 19:14:29;;;;;;;10.90;6.97;;;;;;;;;;5009008;28;20471;-48
2024/03/07 19:16:55;;;;;;;13.43;7.22;;;;;;;;;;5009563;28;20438;-48
2024/03/07 19:19:22;;;;;;;13.30;6.82;;;;;;;;;;5007789;28;20191;-48
2024/03/07 19:21:48;;;;;;;12.23;7.28;;;;;;;;;;4997489;28;20291;-48
2024/03/07 19:24:14;;;;;;;15.10;6.78;;;;;;;;;;5002078;28;20263;-48
2024/03/07 19:26:46;;;;;;;10.95;6.38;;;;;;;;;;5003435;28;20259;-48
2024/03/07 19:29:16;;;;;;;10.35;6.32;;;;;;;;;;5004777;28;20164;-48
2024/03/07 19:31:45;;;;;;;13.00;6.95;;;;;;;;;;5009555;28;20185;-48
2024/03/07 19:34:11;;;;;;;12.30;6.53;;;;;;;;;;5009876;28;20181;-48
2024/03/07 19:36:38;;;;;;;11.95;6.93;;;;;;;;;;5008707;28;20173;-48
2024/03/07 19:39:11;;;;;;;11.40;6.53;;;;;;;;;;5004122;28;20231;-48
2024/03/07 19:41:40;;;;;;;10.52;6.57;;;;;;;;;;5000643;28;20212;-48
2024/03/07 19:44:06;;;;;;;12.07;6.68;;;;;;;;;;5010086;28;20223;-48
2024/03/07 19:46:32;;;;;;;10.15;6.15;;;;;;;;;;5006577;28;20192;-48
2024/03/07 19:48:58;;;;;;;10.63;6.75;;;;;;;;;;4999534;28;20322;-48
2024/03/07 19:51:24;;;;;;;11.30;6.97;;;;;;;;;;5004832;28;20219;-48
2024/03/07 19:53:50;;;;;;;11.23;6.35;;;;;;;;;;5008252;28;20185;-48
2024/03/07 19:56:23;;;;;;;9.95;6.57;;;;;;;;;;5011191;28;20195;-48
2024/03/07 19:58:49;;;;;;;10.00;6.18;;;;;;;;;;5008405;28;20712;-48
2024/03/07 20:01:15;;;;;;;11.27;6.55;;;;;;;;;;4999499;28;20212;-48
2024/03/07 20:03:41;;;;;;;9.90;6.53;;;;;;;;;;4993824;28;20240;-48
2024/03/07 20:06:08;;;;;;;11.13;6.07;;;;;;;;;;4998344;28;20201;-48
2024/03/07 20:08:34;;;;;;;11.13;6.07;;;;;;;;;;5006705;28;20185;-48
2024/03/07 20:11:00;;;;;;;13.30;6.13;;;;;;;;;;5006810;28;20568;-48
2024/03/07 20:13:26;;;;;;;8.82;6.00;;;;;;;;;;5007420;28;20192;-48
2024/03/07 20:15:53;;;;;;;10.00;5.93;;;;;;;;;;5010643;28;20184;-48
2024/03/07 20:18:19;;;;;;;8.90;5.38;;;;;;;;;;5011181;28;20184;-48
2024/03/07 20:20:46;;;;;;;8.85;5.22;;;;;;;;;;5011625;28;20191;-48
2024/03/07 20:23:15;;;;;;;7.40;6.00;;;;;;;;;;5015950;28;20189;-48
2024/03/07 20:25:43;;;;;;;9.75;6.07;;;;;;;;;;5014124;28;20177;-48
2024/03/07 20:28:12;;;;;;;8.18;5.80;;;;;;;;;;5007205;28;20176;-48
2024/03/07 20:30:38;;;;;;;7.40;5.63;;;;;;;;;;5008737;28;20683;-48
2024/03/07 20:33:05;;;;;;;8.90;5.68;;;;;;;;;;4996474;28;20185;-48
2024/03/07 20:35:31;;;;;;;8.45;5.50;;;;;;;;;;5012266;28;20424;-48
2024/03/07 20:38:01;;;;;;;11.63;5.78;;;;;;;;;;5010081;28;20576;-48
2024/03/07 20:40:27;;;;;;;7.82;5.75;;;;;;;;;;5004903;28;20467;-48
2024/03/07 20:42:53;;;;;;;6.60;5.25;;;;;;;;;;5010822;28;20227;-48
2024/03/07 20:45:21;;;;;;;9.63;6.07;;;;;;;;;;5013276;28;20517;-48
2024/03/07 20:47:48;;;;;;;8.45;5.90;;;;;;;;;;5005801;28;20559;-48
2024/03/07 20:50:15;;;;;;;8.70;5.88;;;;;;;;;;5011758;28;20196;-48
2024/03/07 20:52:44;;;;;;;8.15;5.35;;;;;;;;;;4998009;28;20513;-48
2024/03/07 20:55:17;;;;;;;8.63;5.10;;;;;;;;;;5004628;28;20192;-48
2024/03/07 20:57:48;;;;;;;8.48;5.18;;;;;;;;;;5009584;28;20184;-48
2024/03/07 21:00:15;;;;;;;8.05;5.97;;;;;;;;;;5022434;28;20183;-48
2024/03/07 21:02:42;;;;;;;9.10;5.65;;;;;;;;;;5002675;28;20205;-48
2024/03/07 21:05:10;;;;;;;7.97;5.45;;;;;;;;;;5009361;28;20595;-48
2024/03/07 21:07:39;;;;;;;6.90;5.13;;;;;;;;;;5001202;28;20250;-48
2024/03/07 21:10:06;;;;;;;7.72;5.22;;;;;;;;;;5006285;28;20191;-48
2024/03/07 21:12:34;;;;;;;8.70;5.05;;;;;;;;;;5018693;28;20206;-48
2024/03/07 21:15:00;;;;;;;7.53;5.93;;;;;;;;;;5007983;28;20180;-48
2024/03/07 21:17:28;;;;;;;8.60;5.72;;;;;;;;;;5005179;28;20185;-48
2024/03/07 21:19:54;;;;;;;9.07;6.15;;;;;;;;;;5011842;28;20239;-48
2024/03/07 21:22:20;;;;;;;8.52;5.47;;;;;;;;;;5007227;28;20224;-48
2024/03/07 21:24:46;;;;;;;9.75;5.10;;;;;;;;;;5007473;28;20204;-48
2024/03/07 21:27:12;;;;;;;10.63;5.93;;;;;;;;;;5009206;28;20212;-48
2024/03/07 21:29:38;;;;;;;8.82;5.72;;;;;;;;;;5011781;28;20497;-48
2024/03/07 21:32:04;;;;;;;7.80;5.18;;;;;;;;;;5003517;28;20193;-48
2024/03/07 21:34:30;;;;;;;7.32;5.88;;;;;;;;;;5010237;28;20513;-48
2024/03/07 21:36:56;;;;;;;8.45;5.43;;;;;;;;;;5007250;28;20272;-48
2024/03/07 21:39:24;;;;;;;7.13;5.28;;;;;;;;;;5009241;28;20564;-48
2024/03/07 21:41:50;;;;;;;8.52;5.68;;;;;;;;;;5005377;28;20283;-48